logo tempoitalia

Diretta Meteo Socorro, Stati Uniti (USA)lunedì 31 agosto ore 00:35

Mappa
Sereno 26 °C Sereno 24 Ore: T.min 21 T.max 36
Ponente Nord/Nord-Est Km/h 7.4 Punto di rugiada: 9 °C Umidità: 34% Visibilità: 10 Km
Il sole sorge alle: 06:40 Il sole tramonta alle: 19:34
31 Agosto 2026 00:35 tempo osservato: Sereno Sereno 26 34 1019 vento: Nord N/NE 7.4
31 Agosto 2026 00:15 tempo osservato: Sereno Sereno 26 34 1020 vento: Nord N 9.3
30 Agosto 2026 23:55 tempo osservato: Nuvoloso Nuvoloso 25 36 1020 vento: Nord O/NO 11.1
30 Agosto 2026 23:35 tempo osservato: Nuvoloso Nuvoloso 24 38 1020 vento: Nord NO 13
30 Agosto 2026 23:15 tempo osservato: Sereno Sereno 25 36 1020 vento: Nord NO 9.3
30 Agosto 2026 22:55 tempo osservato: Sereno Sereno 25 36 1020 vento: Nord NE 13
30 Agosto 2026 22:35 tempo osservato: Sereno Sereno 25 36 1019 vento: Nord N/NE 9.3
30 Agosto 2026 22:15 tempo osservato: Sereno Sereno 26 31 1019 vento: Nord N/NE 11.1
30 Agosto 2026 21:55 tempo osservato: Sereno Sereno 26 31 1019 vento: Nord N 13
30 Agosto 2026 21:35 tempo osservato: Sereno Sereno 26 31 1019 vento: Nord N/NE 11.1
30 Agosto 2026 21:15 tempo osservato: Sereno Sereno 27 28 1019 vento: Nord N 16.7
30 Agosto 2026 20:55 tempo osservato: Sereno Sereno 28 24 1018 vento: Nord N 13
30 Agosto 2026 20:35 tempo osservato: Sereno Sereno 28 26 1018 vento: Nord N 11.1
30 Agosto 2026 20:15 tempo osservato: Sereno Sereno 29 23 1018 vento: Nord N/NE 13
30 Agosto 2026 19:55 tempo osservato: Sereno Sereno 29 23 1018 vento: Nord N 20.3
30 Agosto 2026 19:35 tempo osservato: Sereno Sereno 30 22 1018 vento: Nord N/NE 20.3
30 Agosto 2026 19:15 tempo osservato: Sereno Sereno 30 22 1017 vento: Nord NO 14.8
30 Agosto 2026 18:55 tempo osservato: Sereno Sereno 31 20 1017 vento: Nord NO 18.5
30 Agosto 2026 18:35 tempo osservato: Sereno Sereno 32 18 1017 vento: Nord O/NO 13
30 Agosto 2026 18:15 tempo osservato: Sereno Sereno 32 18 1017 vento: Nord O/NO 18.5
30 Agosto 2026 17:55 tempo osservato: Sereno Sereno 32 18 1017 vento: Nord O/NO 24
30 Agosto 2026 17:35 tempo osservato: Sereno Sereno 32 18 1017 vento: Nord O 22.2
30 Agosto 2026 17:15 tempo osservato: Sereno Sereno 31 20 1017 vento: Nord O 25.9
30 Agosto 2026 16:55 tempo osservato: Nuvoloso Nuvoloso 32 21 1018 vento: Nord O 42.6
30 Agosto 2026 16:35 tempo osservato: Nuvoloso Nuvoloso 34 16 1018 vento: Nord O 38.8
30 Agosto 2026 16:15 tempo osservato: Sereno Sereno 34 14 1018 vento: Nord NO 20.3
30 Agosto 2026 15:55 tempo osservato: Sereno Sereno 36 13 1018 vento: Nord O/NO 24
30 Agosto 2026 15:35 tempo osservato: Sereno Sereno 35 15 1018 vento: Nord O/NO 29.6
30 Agosto 2026 15:15 tempo osservato: Nuvoloso Nuvoloso 34 16 1018 vento: Nord O 24
30 Agosto 2026 14:55 tempo osservato: Nuvoloso Nuvoloso 36 15 1018 vento: Nord S/SE 7.4
30 Agosto 2026 14:35 tempo osservato: Sereno Sereno 35 17 1019 vento: Nord N 5.5
30 Agosto 2026 14:15 tempo osservato: Sereno Sereno 35 17 1019 vento: Nord E/NE 9.3
30 Agosto 2026 13:55 tempo osservato: Sereno Sereno 35 19 1019 vento: Nord N 7.4
30 Agosto 2026 13:35 tempo osservato: Sereno Sereno 34 20 1020 vento: Nord N 9.3
30 Agosto 2026 13:15 tempo osservato: Sereno Sereno 34 20 1020 vento: Nord N 5.5
30 Agosto 2026 12:55 tempo osservato: Sereno Sereno 33 21 1020 vento: Nord E 11.1
30 Agosto 2026 12:35 tempo osservato: Sereno Sereno 33 21 1021 vento: Nord N 9.3
30 Agosto 2026 12:15 tempo osservato: Sereno Sereno 32 22 1021 vento: Nord S 7.4
30 Agosto 2026 11:55 tempo osservato: Sereno Sereno 32 22 1021 vento: Nord N/NO 11.1
30 Agosto 2026 11:35 tempo osservato: Sereno Sereno 31 25 1021 vento: Nord N 5.5
30 Agosto 2026 11:15 tempo osservato: Sereno Sereno 31 25 1022 vento: Nord N 5.5
30 Agosto 2026 10:55 tempo osservato: Sereno Sereno 30 27 1022 vento: Nord N 5.5
30 Agosto 2026 10:35 tempo osservato: Sereno Sereno 30 27 1022 vento: Nord N 14.8
30 Agosto 2026 10:15 tempo osservato: Sereno Sereno 30 27 1022 vento: Nord N/NE 14.8
30 Agosto 2026 09:55 tempo osservato: Sereno Sereno 29 30 1022 vento: Nord N/NE 16.7
30 Agosto 2026 09:35 tempo osservato: Sereno Sereno 29 30 1022 vento: Nord NE 20.3
30 Agosto 2026 09:15 tempo osservato: Sereno Sereno 28 32 1022 vento: Nord N/NE 22.2
30 Agosto 2026 08:55 tempo osservato: Sereno Sereno 27 36 1022 vento: Nord N 18.5
30 Agosto 2026 08:35 tempo osservato: Sereno Sereno 25 41 1022 vento: Nord N 14.8
30 Agosto 2026 08:15 tempo osservato: Sereno Sereno 24 47 1022 vento: Nord N 13
30 Agosto 2026 07:55 tempo osservato: Sereno Sereno 24 43 1022 vento: Nord N/NE 14.8
30 Agosto 2026 07:35 tempo osservato: Sereno Sereno 22 53 1022 vento: Nord N/NE 7.4
30 Agosto 2026 07:15 tempo osservato: Sereno Sereno 22 53 1022 vento: Nord N/NE 11.1
30 Agosto 2026 06:55 tempo osservato: Sereno Sereno 21 56 1022 vento: Nord N 7.4
30 Agosto 2026 06:35 tempo osservato: Sereno Sereno 21 56 1022 vento: Nord N/NO 9.3
30 Agosto 2026 06:15 tempo osservato: Sereno Sereno 21 56 1022 vento: Nord O/NO 7.4
30 Agosto 2026 05:55 tempo osservato: Sereno Sereno 21 56 1022 vento: Nord N/NO 7.4
30 Agosto 2026 05:35 tempo osservato: Sereno Sereno 22 53 1022 vento: Nord N 5.5
30 Agosto 2026 05:15 tempo osservato: Sereno Sereno 22 53 1021 vento: Nord N 7.4
30 Agosto 2026 04:55 tempo osservato: Sereno Sereno 22 53 1022 vento: Nord N/NE 11.1
30 Agosto 2026 04:35 tempo osservato: Sereno Sereno 22 53 1022 vento: Nord N/NE 11.1
30 Agosto 2026 04:15 tempo osservato: Sereno Sereno 22 53 1022 vento: Nord N 11.1
30 Agosto 2026 03:55 tempo osservato: Sereno Sereno 22 53 1022 vento: Nord N 13
30 Agosto 2026 03:35 tempo osservato: Nuvoloso Nuvoloso 22 53 1022 vento: Nord N 14.8
30 Agosto 2026 03:15 tempo osservato: Sereno Sereno 23 49 1022 vento: Nord N/NO 11.1
30 Agosto 2026 02:55 tempo osservato: Sereno Sereno 23 49 1022 vento: Nord N/NO 14.8
30 Agosto 2026 02:35 tempo osservato: Sereno Sereno 23 49 1022 vento: Nord N/NO 16.7
30 Agosto 2026 02:15 tempo osservato: Sereno Sereno 23 49 1022 vento: Nord N 18.5
30 Agosto 2026 01:55 tempo osservato: Nuvoloso Nuvoloso 23 49 1022 vento: Nord N 22.2
30 Agosto 2026 01:35 tempo osservato: Nuvoloso Nuvoloso 24 47 1022 vento: Nord N 22.2
30 Agosto 2026 01:15 tempo osservato: Nuvoloso Nuvoloso 25 44 1022 vento: Nord N/NO 18.5
30 Agosto 2026 00:55 tempo osservato: Sereno Sereno 25 44 1022 vento: Nord N 14.8
30 Agosto 2026 00:35 tempo osservato: Nuvoloso Nuvoloso 26 41 1022 vento: Nord N 24